الصفحة الرئيسية
METAR-TAF:

METAR-TAF

مطار :

فلوريانوبوليس, سانتا كاتارينا, البرازيل

دائرة عرض: 27-40S, خط طول: 048-33W, ارتفاع: 5 متر

مراقبة الطقس الحالي

تاريخ ووقت الإصدار 22 دقيقة قبل الساعة 02:00UTC
ريح 9 عقدة من الجنوب
درجة الحرارة 14°درجة مئوية
الرطوبة 67%
ضغط 1024 hPa
الرؤية 10 كم أو أكثر
غيوم قليلة على ارتفاع 2900 قدم

METAR: SBFL 260200Z 19009KT 9999 FEW029 14/08 Q1024

زمن: 23:22 (02:22 UTC)

توقعات

تاريخ ووقت الإصدار 5ساعات و 22 دقيقة قبل الساعة 21:00UTC
التوقعات صالحة من26 الساعة 00 UTC إلى 26 الساعة 24 UTC
ريح 8 عقدة من الجنوب/الجنوب الشرقي
الرؤية 10 كم أو أكثر
غيوم قليلة على ارتفاع 3000 قدم
أصبح
من 26 الساعة 20 UTC إلى 26 الساعة 22 UTC
غيوم مفككة على ارتفاع 3000 قدم

TAF: SBFL 252100Z 2600/2624 16008KT 9999 FEW030 TN12/2607Z TX17/2617Z BECMG 2620/2622 BKN030 RMK PEH

أرصاد الطقس والتوقعات من أكثر من 4000 مطار (تقارير الطقس للمطار METAR والتنبؤ بالطقس بالمطارTAF).

المحطات المتاحة هي النقط الصفراء والحمراء على الخريطة.

حرك المؤشر فوق النقطة لمعرفة اسم المحطة.

ثم انقر لمعرفة أرصاد وتوقعات الطقس.

لتغيير الخارطة: اضغط على الأزرار الخضراء مع رمز الصليب الأسود للتكبير. على الزر الأخضر مع شرطة للتصغير، أو على الأسهم الخضراء للخرائط المجاورة.


METAR-TAF: